Puget — AEQW — position and weather

sailwx.info

Track history (hours):
 
Tides and Currents Weather Stations Pressure Air Temp Water Temp Dewpoint Dewpoint Depression Visibility Wind Speed Wind Dir Waves Ship Positions

Puget

Last reported at 2015-Aug-27 20:34 UTC. Time now 2015-Sep-03 17:12 UTC.
Position N 47°40' W 122°24'.

Length 20 m; draft 0.2 m.

Type: Ship. MMSI: 369970510.

Date/timePositionNaut miles runAvg speedWind from/ knotsBaromVisibWave heightAir tempDewpointWater temp
2015-Aug-27 20:34N 47°40' W 122°24'0 0.1
2015-Aug-27 19:33N 47°40' W 122°24'6 6.1
2015-Aug-27 18:33N 47°46' W 122°25'8 8.5
2015-Aug-27 17:34N 47°54' W 122°22'36 1.9
2015-Aug-26 22:20N 48°29' W 122°32'10 5.7
2015-Aug-26 20:33N 48°39' W 122°32'8 4.1
2015-Aug-26 18:33N 48°31' W 122°33'13 0.6
2015-Aug-25 20:33N 48°35' W 122°53'0 0.3
2015-Aug-25 19:33N 48°35' W 122°53'0 0.1
2015-Aug-25 18:33N 48°35' W 122°53'2 1.8
2015-Aug-25 17:32N 48°34' W 122°51'9 8.3
2015-Aug-25 16:27N 48°31' W 122°38'5 0.3
2015-Aug-24 23:25N 48°28' W 122°32'31 5.3
2015-Aug-24 17:29N 47°57' W 122°32'8 8.7
2015-Aug-24 16:33N 47°50' W 122°26'9 8.8
2015-Aug-24 15:33N 47°41' W 122°25'  
2015-Aug-19 23:25N 47°40' W 122°24'0 0.1
2015-Aug-19 22:33N 47°40' W 122°24'0 0.1
2015-Aug-19 21:33N 47°40' W 122°24'4 2.7
2015-Aug-19 20:13N 47°36' W 122°23'2 2.8
2015-Aug-19 19:33N 47°35' W 122°22'7 7.5
2015-Aug-19 18:33N 47°41' W 122°26'8 8.3
2015-Aug-19 17:33N 47°50' W 122°24'9 8.9
2015-Aug-19 16:33N 47°58' W 122°18'4 0.2
2015-Aug-19 01:33N 47°60' W 122°13'0 0.0
2015-Aug-19 00:15N 47°60' W 122°13'0 0.1
2015-Aug-18 23:33N 47°60' W 122°13'0 0.1
2015-Aug-18 16:24N 47°59' W 122°13'0 0.2
2015-Aug-18 15:33N 47°59' W 122°14'2 0.1
2015-Aug-17 22:29N 47°58' W 122°16'  
Track history (hours):
 
Tides and Currents Weather Stations Pressure Air Temp Water Temp Dewpoint Dewpoint Depression Visibility Wind Speed Wind Dir Waves Ship Positions

Puget

Last reported at 2015-Aug-27 20:34 UTC. Time now 2015-Sep-03 17:12 UTC.
Position N 47°40' W 122°24'.

Length 20 m; draft 0.2 m.

Type: Ship. MMSI: 369970510.

Date/timePositionNaut miles runAvg speedWind from/ knotsBaromVisibWave heightAir tempDewpointWater temp
2015-Aug-27 20:34N 47°40' W 122°24'0 0.1
2015-Aug-27 19:33N 47°40' W 122°24'6 6.1
2015-Aug-27 18:33N 47°46' W 122°25'8 8.5
2015-Aug-27 17:34N 47°54' W 122°22'36 1.9
2015-Aug-26 22:20N 48°29' W 122°32'10 5.7
2015-Aug-26 20:33N 48°39' W 122°32'8 4.1
2015-Aug-26 18:33N 48°31' W 122°33'13 0.6
2015-Aug-25 20:33N 48°35' W 122°53'0 0.3
2015-Aug-25 19:33N 48°35' W 122°53'0 0.1
2015-Aug-25 18:33N 48°35' W 122°53'2 1.8
2015-Aug-25 17:32N 48°34' W 122°51'9 8.3
2015-Aug-25 16:27N 48°31' W 122°38'5 0.3
2015-Aug-24 23:25N 48°28' W 122°32'31 5.3
2015-Aug-24 17:29N 47°57' W 122°32'8 8.7
2015-Aug-24 16:33N 47°50' W 122°26'9 8.8
2015-Aug-24 15:33N 47°41' W 122°25'  
2015-Aug-19 23:25N 47°40' W 122°24'0 0.1
2015-Aug-19 22:33N 47°40' W 122°24'0 0.1
2015-Aug-19 21:33N 47°40' W 122°24'4 2.7
2015-Aug-19 20:13N 47°36' W 122°23'2 2.8
2015-Aug-19 19:33N 47°35' W 122°22'7 7.5
2015-Aug-19 18:33N 47°41' W 122°26'8 8.3
2015-Aug-19 17:33N 47°50' W 122°24'9 8.9
2015-Aug-19 16:33N 47°58' W 122°18'4 0.2
2015-Aug-19 01:33N 47°60' W 122°13'0 0.0
2015-Aug-19 00:15N 47°60' W 122°13'0 0.1
2015-Aug-18 23:33N 47°60' W 122°13'0 0.1
2015-Aug-18 16:24N 47°59' W 122°13'0 0.2
2015-Aug-18 15:33N 47°59' W 122°14'2 0.1
2015-Aug-17 22:29N 47°58' W 122°16'  

Dump ship's entire track history